Main page
METAR-TAF:

METAR-TAF

Airports :

Beauvais–Tillé Airport

Beauvais, France

latitude: 49-28N, longitude: 002-07E, elevation: 109 m

Current weather observation

The report was made 44 minutes ago, at 08:30 UTC
Wind 7 kt from the North, varying between North/Northwest and Northeast
Temperature 8°C
Humidity 66%
Pressure 1034 hPa
Visibility 10 km or more
Few clouds at a height of 2900 ft

METAR: LFOB 260830Z AUTO 36007KT 330V050 9999 FEW029 08/02 Q1034 NOSIG

Time: 10:14 (09:14 UTC)

Forecast

The report was made 4 hours and 14 minutes ago, at 05:00 UTC
Forecast valid from 26 at 06 UTC to 27 at 06 UTC
Wind 5 kt from the North
Visibility 10 km or more
Scattered clouds at a height of 3500 ft
Probability 30%
from 27 at 01 UTC to 27 at 06 UTC
Visibility: 3000 m
mist

TAF: LFOB 260500Z 2606/2706 36005KT 9999 SCT035 PROB30 2701/2706 3000 BR

Weather observations and forecasts of more than 4000 airports (METAR and TAF reports).

The available stations are represented by yellow and red dots on the map.

Hover mouse over dot to see the name of the station.

Then click to see weather observations and forecasts.

To change the map : click on the green buttons with a black cross to zoom in, on the green button with a dash to zoom out, or on the green arrows for adjacent maps.


METAR-TAF: